sensor_id;sensor_type;location;lat;lon;timestamp;P1;durP1;ratioP1;P2;durP2;ratioP2
64075;SDS011;50327;51.328;12.324;2023-09-08T00:02:17;9.30;;;4.57;;
64075;SDS011;50327;51.328;12.324;2023-09-08T00:04:43;12.55;;;4.80;;
64075;SDS011;50327;51.328;12.324;2023-09-08T00:07:08;10.05;;;4.63;;
64075;SDS011;50327;51.328;12.324;2023-09-08T00:09:33;10.57;;;5.28;;
64075;SDS011;50327;51.328;12.324;2023-09-08T00:11:58;11.27;;;5.20;;
64075;SDS011;50327;51.328;12.324;2023-09-08T00:14:24;11.73;;;5.32;;
64075;SDS011;50327;51.328;12.324;2023-09-08T00:16:51;10.55;;;5.05;;
64075;SDS011;50327;51.328;12.324;2023-09-08T00:19:19;10.77;;;5.00;;
64075;SDS011;50327;51.328;12.324;2023-09-08T00:21:44;10.18;;;5.65;;
64075;SDS011;50327;51.328;12.324;2023-09-08T00:24:09;10.73;;;5.40;;
64075;SDS011;50327;51.328;12.324;2023-09-08T00:26:35;10.40;;;4.82;;
64075;SDS011;50327;51.328;12.324;2023-09-08T00:29:01;10.02;;;5.38;;
64075;SDS011;50327;51.328;12.324;2023-09-08T00:31:26;11.30;;;5.23;;
64075;SDS011;50327;51.328;12.324;2023-09-08T00:33:51;12.85;;;5.55;;
64075;SDS011;50327;51.328;12.324;2023-09-08T00:36:16;14.15;;;5.38;;
64075;SDS011;50327;51.328;12.324;2023-09-08T00:38:43;10.65;;;5.20;;
64075;SDS011;50327;51.328;12.324;2023-09-08T00:41:08;14.75;;;5.03;;
64075;SDS011;50327;51.328;12.324;2023-09-08T00:43:33;9.75;;;5.78;;
64075;SDS011;50327;51.328;12.324;2023-09-08T00:45:59;11.65;;;5.50;;
64075;SDS011;50327;51.328;12.324;2023-09-08T00:48:25;15.70;;;4.75;;
64075;SDS011;50327;51.328;12.324;2023-09-08T00:50:50;10.05;;;5.55;;
64075;SDS011;50327;51.328;12.324;2023-09-08T00:53:16;15.95;;;5.60;;
64075;SDS011;50327;51.328;12.324;2023-09-08T00:55:42;11.07;;;5.50;;
64075;SDS011;50327;51.328;12.324;2023-09-08T00:58:07;9.63;;;4.72;;
64075;SDS011;50327;51.328;12.324;2023-09-08T01:00:32;10.43;;;5.40;;
64075;SDS011;50327;51.328;12.324;2023-09-08T01:02:57;12.40;;;5.43;;
64075;SDS011;50327;51.328;12.324;2023-09-08T01:05:23;12.88;;;5.00;;
64075;SDS011;50327;51.328;12.324;2023-09-08T01:07:48;18.08;;;5.43;;
64075;SDS011;50327;51.328;12.324;2023-09-08T01:10:14;10.98;;;5.40;;
64075;SDS011;50327;51.328;12.324;2023-09-08T01:12:39;11.50;;;5.57;;
64075;SDS011;50327;51.328;12.324;2023-09-08T01:15:05;9.60;;;4.90;;
64075;SDS011;50327;51.328;12.324;2023-09-08T01:17:30;11.68;;;5.13;;
64075;SDS011;50327;51.328;12.324;2023-09-08T01:19:56;13.43;;;6.13;;
64075;SDS011;50327;51.328;12.324;2023-09-08T01:22:34;9.98;;;5.40;;
64075;SDS011;50327;51.328;12.324;2023-09-08T01:25:12;13.32;;;5.07;;
64075;SDS011;50327;51.328;12.324;2023-09-08T01:27:39;12.55;;;5.53;;
64075;SDS011;50327;51.328;12.324;2023-09-08T01:30:06;25.65;;;5.20;;
64075;SDS011;50327;51.328;12.324;2023-09-08T01:32:31;13.85;;;6.03;;
64075;SDS011;50327;51.328;12.324;2023-09-08T01:34:57;19.20;;;4.85;;
64075;SDS011;50327;51.328;12.324;2023-09-08T01:37:23;13.98;;;5.85;;
64075;SDS011;50327;51.328;12.324;2023-09-08T01:39:49;10.45;;;5.13;;
64075;SDS011;50327;51.328;12.324;2023-09-08T01:42:14;10.55;;;5.25;;
64075;SDS011;50327;51.328;12.324;2023-09-08T01:44:39;9.80;;;4.93;;
64075;SDS011;50327;51.328;12.324;2023-09-08T01:47:04;11.63;;;4.85;;
64075;SDS011;50327;51.328;12.324;2023-09-08T01:49:29;10.00;;;5.72;;
64075;SDS011;50327;51.328;12.324;2023-09-08T01:51:55;9.60;;;5.05;;
64075;SDS011;50327;51.328;12.324;2023-09-08T01:54:21;9.52;;;5.28;;
64075;SDS011;50327;51.328;12.324;2023-09-08T01:56:46;10.00;;;4.47;;
64075;SDS011;50327;51.328;12.324;2023-09-08T01:59:11;12.85;;;4.85;;
64075;SDS011;50327;51.328;12.324;2023-09-08T02:01:36;18.02;;;5.38;;
64075;SDS011;50327;51.328;12.324;2023-09-08T02:04:02;14.27;;;5.07;;
64075;SDS011;50327;51.328;12.324;2023-09-08T02:06:27;11.05;;;5.47;;
64075;SDS011;50327;51.328;12.324;2023-09-08T02:08:52;11.82;;;5.18;;
64075;SDS011;50327;51.328;12.324;2023-09-08T02:11:17;8.52;;;4.75;;
64075;SDS011;50327;51.328;12.324;2023-09-08T02:13:42;12.57;;;4.90;;
64075;SDS011;50327;51.328;12.324;2023-09-08T02:16:12;9.75;;;5.07;;
64075;SDS011;50327;51.328;12.324;2023-09-08T02:18:37;12.57;;;4.75;;
64075;SDS011;50327;51.328;12.324;2023-09-08T02:21:03;9.57;;;4.67;;
64075;SDS011;50327;51.328;12.324;2023-09-08T02:23:28;10.02;;;4.95;;
64075;SDS011;50327;51.328;12.324;2023-09-08T02:25:53;10.88;;;5.10;;
64075;SDS011;50327;51.328;12.324;2023-09-08T02:28:18;16.00;;;6.35;;
64075;SDS011;50327;51.328;12.324;2023-09-08T02:30:43;11.02;;;4.97;;
64075;SDS011;50327;51.328;12.324;2023-09-08T02:33:09;12.20;;;5.22;;
64075;SDS011;50327;51.328;12.324;2023-09-08T02:35:37;11.27;;;5.47;;
64075;SDS011;50327;51.328;12.324;2023-09-08T02:38:05;11.77;;;4.97;;
64075;SDS011;50327;51.328;12.324;2023-09-08T02:40:31;8.98;;;4.93;;
64075;SDS011;50327;51.328;12.324;2023-09-08T02:42:59;14.50;;;5.43;;
64075;SDS011;50327;51.328;12.324;2023-09-08T02:45:24;15.93;;;5.25;;
64075;SDS011;50327;51.328;12.324;2023-09-08T02:47:49;11.25;;;5.10;;
64075;SDS011;50327;51.328;12.324;2023-09-08T02:50:14;8.65;;;4.82;;
64075;SDS011;50327;51.328;12.324;2023-09-08T02:52:39;15.52;;;5.40;;
64075;SDS011;50327;51.328;12.324;2023-09-08T02:55:05;10.50;;;5.47;;
64075;SDS011;50327;51.328;12.324;2023-09-08T02:57:30;17.67;;;5.38;;
64075;SDS011;50327;51.328;12.324;2023-09-08T02:59:55;12.02;;;5.22;;
64075;SDS011;50327;51.328;12.324;2023-09-08T03:02:22;10.43;;;5.22;;
64075;SDS011;50327;51.328;12.324;2023-09-08T03:04:47;12.32;;;4.68;;
64075;SDS011;50327;51.328;12.324;2023-09-08T03:07:12;13.95;;;5.10;;
64075;SDS011;50327;51.328;12.324;2023-09-08T03:09:37;14.63;;;5.60;;
64075;SDS011;50327;51.328;12.324;2023-09-08T03:12:03;11.90;;;5.00;;
64075;SDS011;50327;51.328;12.324;2023-09-08T03:14:28;14.50;;;5.13;;
64075;SDS011;50327;51.328;12.324;2023-09-08T03:16:53;12.80;;;5.40;;
64075;SDS011;50327;51.328;12.324;2023-09-08T03:19:18;10.82;;;5.57;;
64075;SDS011;50327;51.328;12.324;2023-09-08T03:21:44;10.35;;;5.53;;
64075;SDS011;50327;51.328;12.324;2023-09-08T03:24:09;18.60;;;6.55;;
64075;SDS011;50327;51.328;12.324;2023-09-08T03:26:34;13.25;;;5.22;;
64075;SDS011;50327;51.328;12.324;2023-09-08T03:28:59;10.80;;;5.45;;
64075;SDS011;50327;51.328;12.324;2023-09-08T03:31:25;11.50;;;5.55;;
64075;SDS011;50327;51.328;12.324;2023-09-08T03:33:50;11.02;;;5.38;;
64075;SDS011;50327;51.328;12.324;2023-09-08T03:36:15;14.15;;;5.53;;
64075;SDS011;50327;51.328;12.324;2023-09-08T03:38:41;12.93;;;4.90;;
64075;SDS011;50327;51.328;12.324;2023-09-08T03:41:07;11.57;;;6.40;;
64075;SDS011;50327;51.328;12.324;2023-09-08T03:43:32;10.98;;;5.07;;
64075;SDS011;50327;51.328;12.324;2023-09-08T03:45:57;13.88;;;5.32;;
64075;SDS011;50327;51.328;12.324;2023-09-08T03:48:22;9.43;;;5.55;;
64075;SDS011;50327;51.328;12.324;2023-09-08T03:50:48;10.15;;;5.80;;
64075;SDS011;50327;51.328;12.324;2023-09-08T03:53:13;12.75;;;5.38;;
64075;SDS011;50327;51.328;12.324;2023-09-08T03:55:38;13.70;;;5.88;;
64075;SDS011;50327;51.328;12.324;2023-09-08T03:58:03;9.02;;;5.00;;
64075;SDS011;50327;51.328;12.324;2023-09-08T04:00:28;11.43;;;5.82;;
64075;SDS011;50327;51.328;12.324;2023-09-08T04:02:54;15.27;;;6.28;;
64075;SDS011;50327;51.328;12.324;2023-09-08T04:05:19;14.07;;;5.68;;
64075;SDS011;50327;51.328;12.324;2023-09-08T04:07:45;15.60;;;5.50;;
64075;SDS011;50327;51.328;12.324;2023-09-08T04:10:10;12.30;;;5.85;;
64075;SDS011;50327;51.328;12.324;2023-09-08T04:12:35;11.93;;;5.47;;
64075;SDS011;50327;51.328;12.324;2023-09-08T04:15:01;14.57;;;5.57;;
64075;SDS011;50327;51.328;12.324;2023-09-08T04:17:26;10.80;;;5.50;;
64075;SDS011;50327;51.328;12.324;2023-09-08T04:19:51;10.90;;;5.63;;
64075;SDS011;50327;51.328;12.324;2023-09-08T04:22:16;14.65;;;5.75;;
64075;SDS011;50327;51.328;12.324;2023-09-08T04:24:42;11.77;;;5.22;;
64075;SDS011;50327;51.328;12.324;2023-09-08T04:27:07;11.70;;;5.63;;
64075;SDS011;50327;51.328;12.324;2023-09-08T04:29:34;15.00;;;6.72;;
64075;SDS011;50327;51.328;12.324;2023-09-08T04:31:59;9.57;;;5.30;;
64075;SDS011;50327;51.328;12.324;2023-09-08T04:34:24;9.70;;;5.55;;
64075;SDS011;50327;51.328;12.324;2023-09-08T04:36:50;14.32;;;4.97;;
64075;SDS011;50327;51.328;12.324;2023-09-08T04:39:15;11.35;;;6.10;;
64075;SDS011;50327;51.328;12.324;2023-09-08T04:41:40;14.02;;;5.35;;
64075;SDS011;50327;51.328;12.324;2023-09-08T04:44:06;11.93;;;5.30;;
64075;SDS011;50327;51.328;12.324;2023-09-08T04:46:31;13.35;;;5.43;;
64075;SDS011;50327;51.328;12.324;2023-09-08T04:48:56;11.82;;;5.50;;
64075;SDS011;50327;51.328;12.324;2023-09-08T04:51:21;14.32;;;5.32;;
64075;SDS011;50327;51.328;12.324;2023-09-08T04:53:47;10.93;;;6.10;;
64075;SDS011;50327;51.328;12.324;2023-09-08T04:56:12;14.65;;;6.40;;
64075;SDS011;50327;51.328;12.324;2023-09-08T04:58:38;19.80;;;5.65;;
64075;SDS011;50327;51.328;12.324;2023-09-08T05:01:03;12.13;;;5.65;;
64075;SDS011;50327;51.328;12.324;2023-09-08T05:03:28;14.30;;;5.97;;
64075;SDS011;50327;51.328;12.324;2023-09-08T05:05:55;13.13;;;5.47;;
64075;SDS011;50327;51.328;12.324;2023-09-08T05:08:20;13.82;;;5.18;;
64075;SDS011;50327;51.328;12.324;2023-09-08T05:10:46;12.18;;;5.40;;
64075;SDS011;50327;51.328;12.324;2023-09-08T05:13:11;19.20;;;7.75;;
64075;SDS011;50327;51.328;12.324;2023-09-08T05:15:36;11.07;;;6.10;;
64075;SDS011;50327;51.328;12.324;2023-09-08T05:18:02;13.98;;;5.82;;
64075;SDS011;50327;51.328;12.324;2023-09-08T05:20:28;11.73;;;5.95;;
64075;SDS011;50327;51.328;12.324;2023-09-08T05:22:53;13.18;;;5.78;;
64075;SDS011;50327;51.328;12.324;2023-09-08T05:25:18;15.18;;;7.72;;
64075;SDS011;50327;51.328;12.324;2023-09-08T05:27:43;14.85;;;6.53;;
64075;SDS011;50327;51.328;12.324;2023-09-08T05:30:10;14.73;;;6.20;;
64075;SDS011;50327;51.328;12.324;2023-09-08T05:32:36;17.75;;;6.32;;
64075;SDS011;50327;51.328;12.324;2023-09-08T05:35:01;10.57;;;6.32;;
64075;SDS011;50327;51.328;12.324;2023-09-08T05:37:27;11.75;;;6.00;;
64075;SDS011;50327;51.328;12.324;2023-09-08T05:39:53;13.57;;;6.20;;
64075;SDS011;50327;51.328;12.324;2023-09-08T05:42:18;12.90;;;5.68;;
64075;SDS011;50327;51.328;12.324;2023-09-08T05:44:43;20.52;;;6.88;;
64075;SDS011;50327;51.328;12.324;2023-09-08T05:47:10;12.30;;;5.70;;
64075;SDS011;50327;51.328;12.324;2023-09-08T05:49:35;14.15;;;6.75;;
64075;SDS011;50327;51.328;12.324;2023-09-08T05:52:00;11.57;;;6.00;;
64075;SDS011;50327;51.328;12.324;2023-09-08T05:54:25;13.95;;;5.75;;
64075;SDS011;50327;51.328;12.324;2023-09-08T05:56:51;14.45;;;5.85;;
64075;SDS011;50327;51.328;12.324;2023-09-08T05:59:16;12.50;;;6.38;;
64075;SDS011;50327;51.328;12.324;2023-09-08T06:01:41;11.20;;;6.15;;
64075;SDS011;50327;51.328;12.324;2023-09-08T06:04:06;14.27;;;7.05;;
64075;SDS011;50327;51.328;12.324;2023-09-08T06:06:32;18.35;;;5.82;;
64075;SDS011;50327;51.328;12.324;2023-09-08T06:08:57;12.77;;;5.85;;
64075;SDS011;50327;51.328;12.324;2023-09-08T06:11:22;16.45;;;7.13;;
64075;SDS011;50327;51.328;12.324;2023-09-08T06:13:48;12.85;;;6.32;;
64075;SDS011;50327;51.328;12.324;2023-09-08T06:16:13;12.63;;;5.53;;
64075;SDS011;50327;51.328;12.324;2023-09-08T06:18:38;13.50;;;6.43;;
64075;SDS011;50327;51.328;12.324;2023-09-08T06:21:06;17.48;;;7.50;;
64075;SDS011;50327;51.328;12.324;2023-09-08T06:23:32;13.45;;;6.85;;
64075;SDS011;50327;51.328;12.324;2023-09-08T06:25:58;12.43;;;6.10;;
64075;SDS011;50327;51.328;12.324;2023-09-08T06:28:26;12.60;;;6.03;;
64075;SDS011;50327;51.328;12.324;2023-09-08T06:30:52;13.52;;;6.13;;
64075;SDS011;50327;51.328;12.324;2023-09-08T06:33:17;19.45;;;7.45;;
64075;SDS011;50327;51.328;12.324;2023-09-08T06:35:43;12.88;;;6.53;;
64075;SDS011;50327;51.328;12.324;2023-09-08T06:38:09;17.13;;;6.38;;
64075;SDS011;50327;51.328;12.324;2023-09-08T06:40:34;11.75;;;5.65;;
64075;SDS011;50327;51.328;12.324;2023-09-08T06:42:59;11.13;;;5.63;;
64075;SDS011;50327;51.328;12.324;2023-09-08T06:45:24;16.35;;;6.78;;
64075;SDS011;50327;51.328;12.324;2023-09-08T06:47:50;15.63;;;7.47;;
64075;SDS011;50327;51.328;12.324;2023-09-08T06:50:19;13.63;;;6.03;;
64075;SDS011;50327;51.328;12.324;2023-09-08T06:52:45;13.32;;;7.22;;
64075;SDS011;50327;51.328;12.324;2023-09-08T06:55:10;16.88;;;7.13;;
64075;SDS011;50327;51.328;12.324;2023-09-08T06:57:35;14.95;;;6.75;;
64075;SDS011;50327;51.328;12.324;2023-09-08T07:00:00;15.63;;;6.10;;
64075;SDS011;50327;51.328;12.324;2023-09-08T07:02:26;11.57;;;5.72;;
64075;SDS011;50327;51.328;12.324;2023-09-08T07:04:51;18.13;;;6.93;;
64075;SDS011;50327;51.328;12.324;2023-09-08T07:07:16;17.23;;;7.13;;
64075;SDS011;50327;51.328;12.324;2023-09-08T07:09:43;17.38;;;6.28;;
64075;SDS011;50327;51.328;12.324;2023-09-08T07:12:08;15.82;;;6.70;;
64075;SDS011;50327;51.328;12.324;2023-09-08T07:14:34;12.43;;;7.05;;
64075;SDS011;50327;51.328;12.324;2023-09-08T07:16:59;16.77;;;7.68;;
64075;SDS011;50327;51.328;12.324;2023-09-08T07:19:25;16.02;;;6.20;;
64075;SDS011;50327;51.328;12.324;2023-09-08T07:21:50;14.77;;;6.50;;
64075;SDS011;50327;51.328;12.324;2023-09-08T07:24:15;12.65;;;6.15;;
64075;SDS011;50327;51.328;12.324;2023-09-08T07:26:41;23.85;;;8.20;;
64075;SDS011;50327;51.328;12.324;2023-09-08T07:29:07;15.88;;;6.43;;
64075;SDS011;50327;51.328;12.324;2023-09-08T07:31:32;21.92;;;6.68;;
64075;SDS011;50327;51.328;12.324;2023-09-08T07:33:58;12.63;;;6.07;;
64075;SDS011;50327;51.328;12.324;2023-09-08T07:36:23;18.88;;;6.57;;
64075;SDS011;50327;51.328;12.324;2023-09-08T07:38:48;11.38;;;5.80;;
64075;SDS011;50327;51.328;12.324;2023-09-08T07:41:14;17.55;;;6.70;;
64075;SDS011;50327;51.328;12.324;2023-09-08T07:43:40;13.82;;;6.75;;
64075;SDS011;50327;51.328;12.324;2023-09-08T07:46:06;11.80;;;6.07;;
64075;SDS011;50327;51.328;12.324;2023-09-08T07:48:31;13.35;;;6.25;;
64075;SDS011;50327;51.328;12.324;2023-09-08T07:50:57;16.85;;;7.10;;
64075;SDS011;50327;51.328;12.324;2023-09-08T07:53:23;11.48;;;7.03;;
64075;SDS011;50327;51.328;12.324;2023-09-08T07:55:48;13.15;;;5.97;;
64075;SDS011;50327;51.328;12.324;2023-09-08T07:58:14;12.80;;;6.20;;
64075;SDS011;50327;51.328;12.324;2023-09-08T08:00:39;13.32;;;5.53;;
64075;SDS011;50327;51.328;12.324;2023-09-08T08:03:04;14.30;;;6.35;;
64075;SDS011;50327;51.328;12.324;2023-09-08T08:05:31;14.52;;;6.15;;
64075;SDS011;50327;51.328;12.324;2023-09-08T08:07:56;13.63;;;5.80;;
64075;SDS011;50327;51.328;12.324;2023-09-08T08:10:21;12.35;;;5.43;;
64075;SDS011;50327;51.328;12.324;2023-09-08T08:12:46;10.70;;;5.88;;
64075;SDS011;50327;51.328;12.324;2023-09-08T08:15:12;13.18;;;6.00;;
64075;SDS011;50327;51.328;12.324;2023-09-08T08:17:38;11.18;;;5.55;;
64075;SDS011;50327;51.328;12.324;2023-09-08T08:20:04;9.68;;;5.32;;
64075;SDS011;50327;51.328;12.324;2023-09-08T08:22:34;12.05;;;6.22;;
64075;SDS011;50327;51.328;12.324;2023-09-08T08:24:59;9.60;;;5.40;;
64075;SDS011;50327;51.328;12.324;2023-09-08T08:27:24;23.33;;;6.13;;
64075;SDS011;50327;51.328;12.324;2023-09-08T08:29:49;13.02;;;5.90;;
64075;SDS011;50327;51.328;12.324;2023-09-08T08:32:16;9.38;;;4.95;;
64075;SDS011;50327;51.328;12.324;2023-09-08T08:34:41;12.48;;;5.45;;
64075;SDS011;50327;51.328;12.324;2023-09-08T08:37:06;9.52;;;5.30;;
64075;SDS011;50327;51.328;12.324;2023-09-08T08:39:31;9.75;;;5.32;;
64075;SDS011;50327;51.328;12.324;2023-09-08T08:41:57;12.43;;;5.68;;
64075;SDS011;50327;51.328;12.324;2023-09-08T08:44:23;10.93;;;5.55;;
64075;SDS011;50327;51.328;12.324;2023-09-08T08:46:48;14.07;;;5.60;;
64075;SDS011;50327;51.328;12.324;2023-09-08T08:49:14;11.05;;;5.05;;
64075;SDS011;50327;51.328;12.324;2023-09-08T08:51:40;11.95;;;4.88;;
64075;SDS011;50327;51.328;12.324;2023-09-08T08:54:07;11.10;;;4.72;;
64075;SDS011;50327;51.328;12.324;2023-09-08T08:56:33;9.90;;;5.15;;
64075;SDS011;50327;51.328;12.324;2023-09-08T08:59:01;20.45;;;5.22;;
64075;SDS011;50327;51.328;12.324;2023-09-08T09:01:26;12.88;;;5.15;;
64075;SDS011;50327;51.328;12.324;2023-09-08T09:03:53;10.80;;;5.18;;
64075;SDS011;50327;51.328;12.324;2023-09-08T09:06:18;9.95;;;5.20;;
64075;SDS011;50327;51.328;12.324;2023-09-08T09:08:44;11.57;;;5.13;;
64075;SDS011;50327;51.328;12.324;2023-09-08T09:11:10;11.95;;;5.05;;
64075;SDS011;50327;51.328;12.324;2023-09-08T09:13:35;10.27;;;4.93;;
64075;SDS011;50327;51.328;12.324;2023-09-08T09:16:00;11.05;;;4.90;;
64075;SDS011;50327;51.328;12.324;2023-09-08T09:18:28;12.27;;;4.60;;
64075;SDS011;50327;51.328;12.324;2023-09-08T09:20:55;11.13;;;4.78;;
64075;SDS011;50327;51.328;12.324;2023-09-08T09:23:30;13.13;;;4.53;;
64075;SDS011;50327;51.328;12.324;2023-09-08T09:25:56;8.68;;;4.75;;
64075;SDS011;50327;51.328;12.324;2023-09-08T09:28:21;9.25;;;4.63;;
64075;SDS011;50327;51.328;12.324;2023-09-08T09:30:47;8.23;;;4.70;;
64075;SDS011;50327;51.328;12.324;2023-09-08T09:33:13;9.55;;;4.93;;
64075;SDS011;50327;51.328;12.324;2023-09-08T09:35:39;12.82;;;4.85;;
64075;SDS011;50327;51.328;12.324;2023-09-08T09:38:04;9.50;;;4.28;;
64075;SDS011;50327;51.328;12.324;2023-09-08T09:40:30;11.60;;;4.93;;
64075;SDS011;50327;51.328;12.324;2023-09-08T09:42:57;10.25;;;5.40;;
64075;SDS011;50327;51.328;12.324;2023-09-08T09:45:24;13.52;;;5.20;;
64075;SDS011;50327;51.328;12.324;2023-09-08T09:47:49;8.57;;;4.43;;
64075;SDS011;50327;51.328;12.324;2023-09-08T09:50:16;14.15;;;5.05;;
64075;SDS011;50327;51.328;12.324;2023-09-08T09:52:51;10.55;;;5.20;;
64075;SDS011;50327;51.328;12.324;2023-09-08T09:55:20;15.98;;;4.80;;
64075;SDS011;50327;51.328;12.324;2023-09-08T09:57:45;8.77;;;4.60;;
64075;SDS011;50327;51.328;12.324;2023-09-08T10:00:11;14.93;;;4.80;;
64075;SDS011;50327;51.328;12.324;2023-09-08T10:02:36;10.02;;;4.25;;
64075;SDS011;50327;51.328;12.324;2023-09-08T10:05:10;10.32;;;4.60;;
64075;SDS011;50327;51.328;12.324;2023-09-08T10:07:35;10.27;;;3.92;;
64075;SDS011;50327;51.328;12.324;2023-09-08T10:10:00;11.88;;;4.28;;
64075;SDS011;50327;51.328;12.324;2023-09-08T10:12:25;16.75;;;4.70;;
64075;SDS011;50327;51.328;12.324;2023-09-08T10:14:56;7.07;;;3.60;;
64075;SDS011;50327;51.328;12.324;2023-09-08T10:17:22;9.50;;;4.20;;
64075;SDS011;50327;51.328;12.324;2023-09-08T10:19:53;6.53;;;3.40;;
64075;SDS011;50327;51.328;12.324;2023-09-08T10:22:20;8.85;;;4.30;;
64075;SDS011;50327;51.328;12.324;2023-09-08T10:24:46;10.65;;;4.00;;
64075;SDS011;50327;51.328;12.324;2023-09-08T10:27:12;9.30;;;3.90;;
64075;SDS011;50327;51.328;12.324;2023-09-08T10:29:38;11.50;;;4.03;;
64075;SDS011;50327;51.328;12.324;2023-09-08T10:32:03;11.30;;;4.47;;
64075;SDS011;50327;51.328;12.324;2023-09-08T10:34:30;8.32;;;4.22;;
64075;SDS011;50327;51.328;12.324;2023-09-08T10:36:55;8.27;;;3.63;;
64075;SDS011;50327;51.328;12.324;2023-09-08T10:39:31;16.58;;;3.78;;
64075;SDS011;50327;51.328;12.324;2023-09-08T10:44:40;10.27;;;3.60;;
64075;SDS011;50327;51.328;12.324;2023-09-08T10:47:05;9.60;;;4.23;;
64075;SDS011;50327;51.328;12.324;2023-09-08T10:49:34;13.32;;;3.78;;
64075;SDS011;50327;51.328;12.324;2023-09-08T10:52:09;7.10;;;3.53;;
64075;SDS011;50327;51.328;12.324;2023-09-08T10:57:06;9.80;;;3.60;;
64075;SDS011;50327;51.328;12.324;2023-09-08T10:59:37;6.13;;;3.22;;
64075;SDS011;50327;51.328;12.324;2023-09-08T11:02:03;10.73;;;3.58;;
64075;SDS011;50327;51.328;12.324;2023-09-08T11:04:29;7.10;;;3.60;;
64075;SDS011;50327;51.328;12.324;2023-09-08T11:06:56;9.82;;;3.78;;
64075;SDS011;50327;51.328;12.324;2023-09-08T11:09:21;8.43;;;4.05;;
64075;SDS011;50327;51.328;12.324;2023-09-08T11:11:49;7.93;;;3.90;;
64075;SDS011;50327;51.328;12.324;2023-09-08T11:14:14;13.80;;;3.83;;
64075;SDS011;50327;51.328;12.324;2023-09-08T11:16:40;7.47;;;3.67;;
64075;SDS011;50327;51.328;12.324;2023-09-08T11:19:05;7.03;;;3.30;;
64075;SDS011;50327;51.328;12.324;2023-09-08T11:21:31;6.55;;;3.20;;
64075;SDS011;50327;51.328;12.324;2023-09-08T11:24:00;10.75;;;3.30;;
64075;SDS011;50327;51.328;12.324;2023-09-08T11:26:25;8.95;;;4.32;;
64075;SDS011;50327;51.328;12.324;2023-09-08T11:28:51;9.57;;;3.65;;
64075;SDS011;50327;51.328;12.324;2023-09-08T11:31:18;9.13;;;4.32;;
64075;SDS011;50327;51.328;12.324;2023-09-08T11:33:43;15.82;;;4.13;;
64075;SDS011;50327;51.328;12.324;2023-09-08T11:36:12;9.52;;;4.20;;
64075;SDS011;50327;51.328;12.324;2023-09-08T11:38:39;12.95;;;3.63;;
64075;SDS011;50327;51.328;12.324;2023-09-08T11:41:05;10.68;;;4.38;;
64075;SDS011;50327;51.328;12.324;2023-09-08T11:43:31;14.52;;;3.72;;
64075;SDS011;50327;51.328;12.324;2023-09-08T11:45:58;8.88;;;3.78;;
64075;SDS011;50327;51.328;12.324;2023-09-08T11:48:24;9.38;;;4.18;;
64075;SDS011;50327;51.328;12.324;2023-09-08T11:50:52;7.88;;;3.45;;
64075;SDS011;50327;51.328;12.324;2023-09-08T11:53:21;6.30;;;3.35;;
64075;SDS011;50327;51.328;12.324;2023-09-08T11:55:46;17.17;;;3.80;;
64075;SDS011;50327;51.328;12.324;2023-09-08T11:58:12;9.23;;;4.00;;
64075;SDS011;50327;51.328;12.324;2023-09-08T12:00:37;7.68;;;3.75;;
64075;SDS011;50327;51.328;12.324;2023-09-08T12:03:13;9.07;;;3.63;;
64075;SDS011;50327;51.328;12.324;2023-09-08T12:05:40;9.02;;;3.40;;
64075;SDS011;50327;51.328;12.324;2023-09-08T12:08:06;11.50;;;3.65;;
64075;SDS011;50327;51.328;12.324;2023-09-08T12:10:37;13.32;;;3.75;;
64075;SDS011;50327;51.328;12.324;2023-09-08T12:13:02;9.00;;;4.68;;
64075;SDS011;50327;51.328;12.324;2023-09-08T12:17:57;16.20;;;4.25;;
64075;SDS011;50327;51.328;12.324;2023-09-08T12:20:23;8.68;;;3.70;;
64075;SDS011;50327;51.328;12.324;2023-09-08T12:22:49;11.60;;;3.60;;
64075;SDS011;50327;51.328;12.324;2023-09-08T12:25:15;7.97;;;3.10;;
64075;SDS011;50327;51.328;12.324;2023-09-08T12:27:41;7.38;;;3.92;;
64075;SDS011;50327;51.328;12.324;2023-09-08T12:30:06;8.32;;;3.65;;
64075;SDS011;50327;51.328;12.324;2023-09-08T12:32:33;6.47;;;3.25;;
64075;SDS011;50327;51.328;12.324;2023-09-08T12:34:59;12.00;;;4.60;;
64075;SDS011;50327;51.328;12.324;2023-09-08T12:37:26;7.28;;;3.35;;
64075;SDS011;50327;51.328;12.324;2023-09-08T12:39:57;17.17;;;3.65;;
64075;SDS011;50327;51.328;12.324;2023-09-08T12:42:23;7.45;;;3.88;;
64075;SDS011;50327;51.328;12.324;2023-09-08T12:44:53;8.60;;;3.55;;
64075;SDS011;50327;51.328;12.324;2023-09-08T12:47:19;10.52;;;3.90;;
64075;SDS011;50327;51.328;12.324;2023-09-08T12:49:44;10.13;;;4.10;;
64075;SDS011;50327;51.328;12.324;2023-09-08T12:52:09;7.63;;;3.78;;
64075;SDS011;50327;51.328;12.324;2023-09-08T12:54:35;7.70;;;3.90;;
64075;SDS011;50327;51.328;12.324;2023-09-08T12:57:00;8.50;;;4.15;;
64075;SDS011;50327;51.328;12.324;2023-09-08T12:59:26;10.27;;;4.30;;
64075;SDS011;50327;51.328;12.324;2023-09-08T13:01:51;7.78;;;3.70;;
64075;SDS011;50327;51.328;12.324;2023-09-08T13:04:17;9.13;;;3.63;;
64075;SDS011;50327;51.328;12.324;2023-09-08T13:06:43;7.25;;;3.85;;
64075;SDS011;50327;51.328;12.324;2023-09-08T13:09:09;7.97;;;3.40;;
64075;SDS011;50327;51.328;12.324;2023-09-08T13:11:34;9.73;;;3.83;;
64075;SDS011;50327;51.328;12.324;2023-09-08T13:13:59;6.22;;;3.13;;
64075;SDS011;50327;51.328;12.324;2023-09-08T13:16:24;13.40;;;4.15;;
64075;SDS011;50327;51.328;12.324;2023-09-08T13:18:50;8.35;;;3.50;;
64075;SDS011;50327;51.328;12.324;2023-09-08T13:21:16;7.50;;;3.72;;
64075;SDS011;50327;51.328;12.324;2023-09-08T13:23:41;7.22;;;3.45;;
64075;SDS011;50327;51.328;12.324;2023-09-08T13:26:06;13.95;;;4.40;;
64075;SDS011;50327;51.328;12.324;2023-09-08T13:28:32;10.10;;;6.00;;
64075;SDS011;50327;51.328;12.324;2023-09-08T13:30:57;10.10;;;3.42;;
64075;SDS011;50327;51.328;12.324;2023-09-08T13:33:22;6.87;;;3.30;;
64075;SDS011;50327;51.328;12.324;2023-09-08T13:35:47;9.18;;;3.92;;
64075;SDS011;50327;51.328;12.324;2023-09-08T13:38:13;8.70;;;3.37;;
64075;SDS011;50327;51.328;12.324;2023-09-08T13:40:40;12.17;;;3.50;;
64075;SDS011;50327;51.328;12.324;2023-09-08T13:43:06;6.80;;;3.58;;
64075;SDS011;50327;51.328;12.324;2023-09-08T13:45:31;10.88;;;3.28;;
64075;SDS011;50327;51.328;12.324;2023-09-08T13:47:57;7.20;;;3.53;;
64075;SDS011;50327;51.328;12.324;2023-09-08T13:50:22;9.95;;;3.33;;
64075;SDS011;50327;51.328;12.324;2023-09-08T13:52:48;10.10;;;3.53;;
64075;SDS011;50327;51.328;12.324;2023-09-08T13:55:14;9.63;;;3.73;;
64075;SDS011;50327;51.328;12.324;2023-09-08T13:57:39;17.27;;;3.22;;
64075;SDS011;50327;51.328;12.324;2023-09-08T14:00:04;9.50;;;3.80;;
64075;SDS011;50327;51.328;12.324;2023-09-08T14:02:30;7.03;;;3.65;;
64075;SDS011;50327;51.328;12.324;2023-09-08T14:04:55;7.93;;;3.55;;
64075;SDS011;50327;51.328;12.324;2023-09-08T14:07:20;7.87;;;3.07;;
64075;SDS011;50327;51.328;12.324;2023-09-08T14:09:45;7.97;;;3.47;;
64075;SDS011;50327;51.328;12.324;2023-09-08T14:12:11;8.17;;;3.13;;
64075;SDS011;50327;51.328;12.324;2023-09-08T14:14:36;11.20;;;3.70;;
64075;SDS011;50327;51.328;12.324;2023-09-08T14:17:01;7.17;;;3.80;;
64075;SDS011;50327;51.328;12.324;2023-09-08T14:19:26;7.73;;;3.43;;
64075;SDS011;50327;51.328;12.324;2023-09-08T14:21:52;8.15;;;3.90;;
64075;SDS011;50327;51.328;12.324;2023-09-08T14:24:17;5.95;;;2.90;;
64075;SDS011;50327;51.328;12.324;2023-09-08T14:26:42;7.03;;;3.27;;